Airport Name : Pafos Intl

Other Name : Pafos Intl

ICAO : LCPH

IATA : PFO

FAA :

Latitude : 34.718039

Longitude : 32.485731

Country : Cyprus

Local Date and Time : 4/21/2018 1:00:00 PM

 

TAF (Terminal Aerodrome Forecast)

TAF LCPH 210530Z 2106/2206 03008KT 9999 SCT020 BECMG 2106/2109 12010KT PROB30 TEMPO 2108/2115 VRB15G25KT 4000 TSRA SCT020CB BECMG 2110/2112 27010KT BECMG 2116/2119 01008KT

 

METAR (METeorological Aerodrome Report)

LCPH 210930Z 14012KT 9999 FEW025CB SCT045 23/14 Q1007

LCPH 210900Z 14013KT 9999 FEW030 SCT045 23/14 Q1007

LCPH 210830Z 15014KT 9999 FEW030 SCT045 23/14 Q1006

LCPH 210800Z 14014KT 9999 FEW030 SCT045 23/14 Q1006

LCPH 210730Z 14012KT 9999 FEW030 SCT045 22/14 Q1006

LCPH 210700Z 14013KT 9999 FEW030 SCT035 21/14 Q1006

LCPH 210630Z 13012KT 9999 FEW030 BKN035 22/14 Q1005